OIKQ  Dayrestan Airport

Add Bookmark

Iran

Status
Operational
Latitude Longitude
26° 45' 16" N 55° 54' 8" E
26.754601 55.902401
Local (DST + 5) UTC (GMT + 4)
Oct 21, 2014 08:12 Oct 21, 2014 16:42
Sunrise-Sunset Local UTC
Begin Civil Twilight 05:24 01:54
Sunrise 05:48 02:18
Sunset 05:13 13:43
End Civil Twilight 05:37 14:07

Current Weather

METAR Observed VFR
OIKQ 211600Z 00000KT CAVOK 28/23 Q1012 Tue, Oct 21, 2014 @ 16:00 UTC
(42 Minutes ago)
Visual Flight Rules
Wind Visibility Clouds Conditions
Calm 10 km or more
  • Clear skies
  • No significant weather
Temperatures Readings Precipitation
Current Temp 28°C (82°F)
Dewpoint 23°C (73°F)
Heat Index 31°C (87°F)
Humidity 74%
Altimeter 29.88"Hg
Sea Level Pressure 1012mb
Field Elevation 39.37'
None Recorded

Additional weather within a 92.6km radius of OIKQ

Map ICAO Location
OIKB 69.8km N (042°)

24 Hour Weather History

Loading
-

24 Hour Weather Graphs

Loading
-

CheckWX.com is intended as a tool to help pilots better visualize weather data. It is not intended as a substitute for an official weather briefing obtained from a Flight Service Station. CheckWX.com does not meet the FAA requirements for an official pre-flight weather briefing. Therefore, it's important that pilots still call and obtain an official FSS pre-flight weather briefing.